createdAt,value
2017-08-14T00:01:08.587Z,85.30
2017-08-14T00:03:37.624Z,85.00
2017-08-14T00:06:05.877Z,84.90
2017-08-14T00:08:34.918Z,84.70
2017-08-14T00:11:03.160Z,84.70
2017-08-14T00:13:31.456Z,84.90
2017-08-14T00:16:00.484Z,85.00
2017-08-14T00:18:28.738Z,85.00
2017-08-14T00:20:57.034Z,85.30
2017-08-14T00:23:25.280Z,85.30
2017-08-14T00:25:53.552Z,85.30
2017-08-14T00:28:21.773Z,85.10
2017-08-14T00:30:50.019Z,85.30
2017-08-14T00:33:18.321Z,85.50
2017-08-14T00:35:46.594Z,85.50
2017-08-14T00:38:14.855Z,85.80
2017-08-14T00:40:43.139Z,85.70
2017-08-14T00:43:11.406Z,85.70
2017-08-14T00:45:39.783Z,85.50
2017-08-14T00:48:08.063Z,86.30
2017-08-14T00:50:36.361Z,86.80
2017-08-14T00:53:04.582Z,86.90
2017-08-14T00:55:32.884Z,87.30
2017-08-14T00:58:01.274Z,87.40
2017-08-14T01:00:29.492Z,87.40
2017-08-14T01:02:58.545Z,86.80
2017-08-14T01:05:26.829Z,86.80
2017-08-14T01:07:55.523Z,86.30
2017-08-14T01:10:23.736Z,86.10
2017-08-14T01:12:52.765Z,85.50
2017-08-14T01:15:21.045Z,85.50
2017-08-14T01:17:49.337Z,85.20
2017-08-14T01:20:17.597Z,85.00
2017-08-14T01:22:45.862Z,84.60
2017-08-14T01:25:14.890Z,85.00
2017-08-14T01:27:43.162Z,84.30
2017-08-14T01:30:11.431Z,84.40
2017-08-14T01:32:39.668Z,84.30
2017-08-14T01:35:08.685Z,84.30
2017-08-14T01:37:36.936Z,84.20
2017-08-14T01:40:05.957Z,84.60
2017-08-14T01:42:34.218Z,83.90
2017-08-14T01:45:03.261Z,83.80
2017-08-14T01:47:31.494Z,83.80
2017-08-14T01:49:59.762Z,83.80
2017-08-14T01:52:28.783Z,83.70
2017-08-14T01:54:57.080Z,83.70
2017-08-14T01:57:25.310Z,83.80
2017-08-14T01:59:54.375Z,83.60
2017-08-14T02:02:22.625Z,83.60
2017-08-14T02:04:50.876Z,84.00
2017-08-14T02:07:19.135Z,84.30
2017-08-14T02:09:49.200Z,84.20
2017-08-14T02:12:17.426Z,84.20
2017-08-14T02:14:46.466Z,84.00
2017-08-14T02:17:14.691Z,83.80
2017-08-14T02:19:42.951Z,84.10
2017-08-14T02:22:11.222Z,84.20
2017-08-14T02:24:39.463Z,84.10
2017-08-14T02:27:07.723Z,83.90
2017-08-14T02:29:35.975Z,83.90
2017-08-14T02:32:05.024Z,84.50
2017-08-14T02:34:33.257Z,83.60
2017-08-14T02:37:02.282Z,84.00
2017-08-14T02:39:30.552Z,83.90
2017-08-14T02:41:58.790Z,84.00
2017-08-14T02:44:27.088Z,83.90
2017-08-14T02:46:55.309Z,83.90
2017-08-14T02:49:23.561Z,84.00
2017-08-14T02:51:51.841Z,84.00
2017-08-14T02:54:20.134Z,83.90
2017-08-14T02:56:48.384Z,83.80
2017-08-14T02:59:16.665Z,83.80
2017-08-14T03:01:44.913Z,83.70
2017-08-14T03:04:13.162Z,83.50
2017-08-14T03:06:41.412Z,83.40
2017-08-14T03:09:09.673Z,83.50
2017-08-14T03:11:38.710Z,83.20
2017-08-14T03:14:06.974Z,83.30
2017-08-14T03:16:35.233Z,83.20
2017-08-14T03:19:03.530Z,83.40
2017-08-14T03:21:31.786Z,83.40
2017-08-14T03:24:00.275Z,83.20
2017-08-14T03:26:28.521Z,83.30
2017-08-14T03:28:57.565Z,83.40
2017-08-14T03:31:25.838Z,83.30
2017-08-14T03:33:54.081Z,83.80
2017-08-14T03:36:23.125Z,83.90
2017-08-14T03:38:51.346Z,83.90
2017-08-14T03:41:20.378Z,83.80
2017-08-14T03:43:48.610Z,83.80
2017-08-14T03:46:17.642Z,83.50
2017-08-14T03:48:45.906Z,84.00
2017-08-14T03:51:14.158Z,83.80
2017-08-14T03:53:42.766Z,83.80
2017-08-14T03:56:11.782Z,84.40
2017-08-14T03:58:40.042Z,84.10
2017-08-14T04:01:08.323Z,84.00
2017-08-14T04:03:36.586Z,84.20
2017-08-14T04:06:04.912Z,84.40
2017-08-14T04:08:33.202Z,84.10
2017-08-14T04:11:01.522Z,84.00
2017-08-14T04:13:30.542Z,84.30
2017-08-14T04:16:01.751Z,83.70
2017-08-14T04:18:30.786Z,83.90
2017-08-14T04:20:59.039Z,83.90
2017-08-14T04:23:27.296Z,83.70
2017-08-14T04:25:56.321Z,83.50
2017-08-14T04:28:24.543Z,83.50
2017-08-14T04:30:52.818Z,83.50
2017-08-14T04:33:21.047Z,83.30
2017-08-14T04:35:49.336Z,83.20
2017-08-14T04:38:17.619Z,83.00
2017-08-14T04:40:45.850Z,83.00
2017-08-14T04:43:14.879Z,83.00
2017-08-14T04:45:43.139Z,82.90
2017-08-14T04:48:11.407Z,82.80
2017-08-14T04:50:39.702Z,82.70
2017-08-14T04:53:08.207Z,82.50
2017-08-14T04:55:36.530Z,82.30
2017-08-14T04:58:05.536Z,79.50
2017-08-14T05:00:34.587Z,76.70
2017-08-14T05:03:02.864Z,76.70
2017-08-14T05:05:31.155Z,74.90
2017-08-14T05:07:59.418Z,74.70
2017-08-14T05:10:27.713Z,74.50
2017-08-14T05:12:55.987Z,75.70
2017-08-14T05:15:24.241Z,75.60
2017-08-14T05:17:52.474Z,76.50
2017-08-14T05:20:21.508Z,78.10
2017-08-14T05:22:49.766Z,77.50
2017-08-14T05:25:18.022Z,77.70
2017-08-14T05:27:47.069Z,77.60
2017-08-14T05:30:15.302Z,77.60
2017-08-14T05:32:43.642Z,78.20
2017-08-14T05:35:11.990Z,78.20
2017-08-14T05:37:40.238Z,78.30
2017-08-14T05:40:09.246Z,78.40
2017-08-14T05:42:37.496Z,78.40
2017-08-14T05:45:05.732Z,78.40
2017-08-14T05:47:34.093Z,78.40
2017-08-14T05:50:03.097Z,78.10
2017-08-14T05:52:31.399Z,78.00
2017-08-14T05:55:00.429Z,78.20
2017-08-14T05:57:28.698Z,78.10
2017-08-14T05:59:57.697Z,78.50
2017-08-14T06:02:26.723Z,78.40
2017-08-14T06:04:54.986Z,78.00
2017-08-14T06:07:23.201Z,77.80
2017-08-14T06:09:51.512Z,78.00
2017-08-14T06:12:19.748Z,78.00
2017-08-14T06:14:47.984Z,78.10
2017-08-14T06:17:16.247Z,78.10
2017-08-14T06:19:45.263Z,77.30
2017-08-14T06:22:13.509Z,77.30
2017-08-14T06:24:42.573Z,77.20
2017-08-14T06:27:10.806Z,77.30
2017-08-14T06:29:39.087Z,77.10
2017-08-14T06:32:07.344Z,76.80
2017-08-14T06:34:36.375Z,76.30
2017-08-14T06:37:04.641Z,76.30
2017-08-14T06:39:32.885Z,76.10
2017-08-14T06:42:01.742Z,76.10
2017-08-14T06:44:30.822Z,76.00
2017-08-14T06:46:59.105Z,75.50
2017-08-14T06:49:27.353Z,75.30
2017-08-14T06:51:55.635Z,75.20
2017-08-14T06:54:23.905Z,75.40
2017-08-14T06:56:52.950Z,74.70
2017-08-14T06:59:21.197Z,74.70
2017-08-14T07:01:49.481Z,74.50
2017-08-14T07:04:17.737Z,74.30
2017-08-14T07:06:46.004Z,73.70
2017-08-14T07:09:14.241Z,73.60
2017-08-14T07:11:42.494Z,73.30
2017-08-14T07:14:10.751Z,73.60
2017-08-14T07:16:38.978Z,73.10
2017-08-14T07:19:07.235Z,72.30
2017-08-14T07:21:35.495Z,71.80
2017-08-14T07:24:03.732Z,72.10
2017-08-14T07:26:32.794Z,71.80
2017-08-14T07:29:01.065Z,71.80
2017-08-14T07:31:29.345Z,70.80
2017-08-14T07:33:57.700Z,71.00
2017-08-14T07:36:25.945Z,70.10
2017-08-14T07:38:54.951Z,70.60
2017-08-14T07:41:23.205Z,70.60
2017-08-14T07:43:52.265Z,69.70
2017-08-14T07:46:20.509Z,69.70
2017-08-14T07:48:48.797Z,69.60
2017-08-14T07:51:17.798Z,68.90
2017-08-14T07:53:46.213Z,68.90
2017-08-14T07:56:14.441Z,68.10
2017-08-14T07:58:42.741Z,68.20
2017-08-14T08:01:10.986Z,67.30
2017-08-14T08:03:39.217Z,66.50
2017-08-14T08:06:07.473Z,66.30
2017-08-14T08:08:35.715Z,65.70
2017-08-14T08:11:03.952Z,66.30
2017-08-14T08:13:32.229Z,66.10
2017-08-14T08:16:01.300Z,64.50
2017-08-14T08:18:29.600Z,64.50
2017-08-14T08:20:58.014Z,64.80
2017-08-14T08:23:26.231Z,64.90
2017-08-14T08:25:54.515Z,63.70
2017-08-14T08:28:22.739Z,63.10
2017-08-14T08:30:51.768Z,63.10
2017-08-14T08:33:20.071Z,63.10
2017-08-14T08:35:48.349Z,62.70
2017-08-14T08:38:16.916Z,63.60
2017-08-14T08:40:45.155Z,61.40
2017-08-14T08:43:14.194Z,61.10
2017-08-14T08:45:43.411Z,60.80
2017-08-14T08:48:11.669Z,61.00
2017-08-14T08:50:39.986Z,60.70
2017-08-14T08:53:08.226Z,60.60
2017-08-14T08:55:36.478Z,60.30
2017-08-14T08:58:04.987Z,60.00
2017-08-14T09:00:33.253Z,60.30
2017-08-14T09:03:02.673Z,60.20
2017-08-14T09:05:31.856Z,59.20
2017-08-14T09:08:00.326Z,58.90
2017-08-14T09:10:29.305Z,59.70
2017-08-14T09:12:57.534Z,59.70
2017-08-14T09:15:25.841Z,56.70
2017-08-14T09:17:54.883Z,58.70
2017-08-14T09:20:23.123Z,58.80
2017-08-14T09:22:52.154Z,57.80
2017-08-14T09:25:20.427Z,57.70
2017-08-14T09:27:48.658Z,55.70
2017-08-14T09:30:17.732Z,56.40
2017-08-14T09:32:45.956Z,56.50
2017-08-14T09:35:14.197Z,57.50
2017-08-14T09:37:42.447Z,56.80
2017-08-14T09:40:10.722Z,55.80
2017-08-14T09:42:38.980Z,55.70
2017-08-14T09:45:07.224Z,54.60
2017-08-14T09:47:36.273Z,55.20
2017-08-14T09:50:04.529Z,55.10
2017-08-14T09:52:32.762Z,54.60
2017-08-14T09:55:01.788Z,53.60
2017-08-14T09:57:30.047Z,53.60
2017-08-14T09:59:58.271Z,53.60
2017-08-14T10:02:26.530Z,53.70
2017-08-14T10:04:54.790Z,54.40
2017-08-14T10:07:23.054Z,53.40
2017-08-14T10:09:51.353Z,52.90
2017-08-14T10:12:19.573Z,52.90
2017-08-14T10:14:47.825Z,53.70
2017-08-14T10:17:16.096Z,52.70
2017-08-14T10:19:44.382Z,52.60
2017-08-14T10:22:12.698Z,53.70
2017-08-14T10:24:40.970Z,52.10
2017-08-14T10:27:09.198Z,52.50
2017-08-14T10:29:37.885Z,52.00
2017-08-14T10:32:06.142Z,50.80
2017-08-14T10:34:34.396Z,49.00
2017-08-14T10:37:03.407Z,48.70
2017-08-14T10:39:31.688Z,48.60
2017-08-14T10:41:59.959Z,48.60
2017-08-14T10:44:28.974Z,48.50
2017-08-14T10:46:57.209Z,48.40
2017-08-14T10:49:25.525Z,48.50
2017-08-14T10:51:53.833Z,48.70
2017-08-14T10:54:22.072Z,49.80
2017-08-14T10:56:50.337Z,48.90
2017-08-14T10:59:18.598Z,47.00
2017-08-14T11:01:47.637Z,47.60
2017-08-14T11:04:15.883Z,47.60
2017-08-14T11:06:44.915Z,48.00
2017-08-14T11:09:13.197Z,48.00
2017-08-14T11:11:41.435Z,48.50
2017-08-14T11:14:10.563Z,46.50
2017-08-14T11:16:39.972Z,46.80
2017-08-14T11:19:08.266Z,46.70
2017-08-14T11:21:36.470Z,46.90
2017-08-14T11:24:04.747Z,48.30
2017-08-14T11:26:33.023Z,49.50
2017-08-14T11:29:01.273Z,47.00
2017-08-14T11:31:29.593Z,46.50
2017-08-14T11:33:58.613Z,44.50
2017-08-14T11:36:26.846Z,44.40
2017-08-14T11:38:55.113Z,47.50
2017-08-14T11:41:23.393Z,48.10
2017-08-14T11:43:51.646Z,48.60
2017-08-14T11:46:19.922Z,50.00
2017-08-14T11:48:48.551Z,50.20
2017-08-14T11:51:16.938Z,51.80
2017-08-14T11:53:45.183Z,52.60
2017-08-14T11:56:13.435Z,51.50
2017-08-14T11:58:41.726Z,51.70
2017-08-14T12:01:09.959Z,49.40
2017-08-14T12:03:38.266Z,47.50
2017-08-14T12:06:06.507Z,46.60
2017-08-14T12:08:35.196Z,48.90
2017-08-14T12:11:03.449Z,47.30
2017-08-14T12:13:32.470Z,48.40
2017-08-14T12:16:01.592Z,47.60
2017-08-14T12:18:29.823Z,47.50
2017-08-14T12:20:58.837Z,49.50
2017-08-14T12:23:27.126Z,49.50
2017-08-14T12:25:55.418Z,47.80
2017-08-14T12:28:23.662Z,46.90
2017-08-14T12:30:52.689Z,47.60
2017-08-14T12:33:20.943Z,47.60
2017-08-14T12:35:49.185Z,48.30
2017-08-14T12:38:17.419Z,47.50
2017-08-14T12:40:45.698Z,48.80
2017-08-14T12:43:14.769Z,47.90
2017-08-14T12:45:43.039Z,47.80
2017-08-14T12:48:11.273Z,48.40
2017-08-14T12:50:39.576Z,47.70
2017-08-14T12:53:07.807Z,47.70
2017-08-14T12:55:36.094Z,50.00
2017-08-14T12:58:04.365Z,50.10
2017-08-14T13:00:32.597Z,48.70
2017-08-14T13:03:00.834Z,48.20
2017-08-14T13:05:29.083Z,47.50
2017-08-14T13:07:57.345Z,48.00
2017-08-14T13:10:25.768Z,48.70
2017-08-14T13:12:54.079Z,48.50
2017-08-14T13:15:23.119Z,48.40
2017-08-14T13:17:51.433Z,48.40
2017-08-14T13:20:20.593Z,48.20
2017-08-14T13:22:48.831Z,47.70
2017-08-14T13:25:17.890Z,45.60
2017-08-14T13:27:46.154Z,45.60
2017-08-14T13:30:14.421Z,44.70
2017-08-14T13:32:42.693Z,46.50
2017-08-14T13:35:10.966Z,46.80
2017-08-14T13:37:39.264Z,46.80
2017-08-14T13:40:07.517Z,48.00
2017-08-14T13:42:37.391Z,49.20
2017-08-14T13:45:05.642Z,49.10
2017-08-14T13:47:33.888Z,49.10
2017-08-14T13:50:02.137Z,47.80
2017-08-14T13:52:31.160Z,49.50
2017-08-14T13:54:59.705Z,49.00
2017-08-14T13:57:28.805Z,48.20
2017-08-14T13:59:57.818Z,48.70
2017-08-14T14:02:26.119Z,48.60
2017-08-14T14:04:54.373Z,48.50
2017-08-14T14:07:23.431Z,50.90
2017-08-14T14:09:51.659Z,50.90
2017-08-14T14:12:19.946Z,48.80
2017-08-14T14:14:48.215Z,50.00
2017-08-14T14:17:16.453Z,48.90
2017-08-14T14:19:45.501Z,48.40
2017-08-14T14:22:13.757Z,48.40
2017-08-14T14:24:41.993Z,49.20
2017-08-14T14:27:10.306Z,49.60
2017-08-14T14:29:39.421Z,50.30
2017-08-14T14:32:07.666Z,50.30
2017-08-14T14:34:35.929Z,49.30
2017-08-14T14:37:04.174Z,51.10
2017-08-14T14:39:32.453Z,51.50
2017-08-14T14:42:00.866Z,50.50
2017-08-14T14:44:29.097Z,49.40
2017-08-14T14:46:57.383Z,48.90
2017-08-14T14:49:25.601Z,48.80
2017-08-14T14:51:53.911Z,49.70
2017-08-14T14:54:22.200Z,49.80
2017-08-14T14:56:50.439Z,49.20
2017-08-14T14:59:18.759Z,50.80
2017-08-14T15:01:47.039Z,51.20
2017-08-14T15:04:15.306Z,50.60
2017-08-14T15:06:43.601Z,50.80
2017-08-14T15:09:11.822Z,50.40
2017-08-14T15:11:40.857Z,50.10
2017-08-14T15:14:09.111Z,50.10
2017-08-14T15:16:38.082Z,50.00
2017-08-14T15:19:06.360Z,50.00
2017-08-14T15:21:35.500Z,50.20
2017-08-14T15:24:04.475Z,50.50
2017-08-14T15:26:32.707Z,50.40
2017-08-14T15:29:00.991Z,49.50
2017-08-14T15:31:29.256Z,49.90
2017-08-14T15:33:57.555Z,50.90
2017-08-14T15:36:26.583Z,52.00
2017-08-14T15:38:54.946Z,51.40
2017-08-14T15:41:23.990Z,51.00
2017-08-14T15:43:52.254Z,50.90
2017-08-14T15:46:20.502Z,51.10
2017-08-14T15:48:49.534Z,51.20
2017-08-14T15:51:17.787Z,51.20
2017-08-14T15:53:46.039Z,50.60
2017-08-14T15:56:15.042Z,50.70
2017-08-14T15:58:43.310Z,50.60
2017-08-14T16:01:11.587Z,50.40
2017-08-14T16:03:40.624Z,51.60
2017-08-14T16:06:08.898Z,51.10
2017-08-14T16:08:37.171Z,50.10
2017-08-14T16:11:05.412Z,51.10
2017-08-14T16:13:33.668Z,51.20
2017-08-14T16:16:01.949Z,52.00
2017-08-14T16:18:31.137Z,54.20
2017-08-14T16:20:59.390Z,54.10
2017-08-14T16:23:27.694Z,52.40
2017-08-14T16:25:55.947Z,53.60
2017-08-14T16:28:24.219Z,53.60
2017-08-14T16:30:52.457Z,53.70
2017-08-14T16:33:21.516Z,54.50
2017-08-14T16:35:49.769Z,54.50
2017-08-14T16:38:18.033Z,54.60
2017-08-14T16:40:46.297Z,54.70
2017-08-14T16:43:14.580Z,54.00
2017-08-14T16:45:43.666Z,54.00
2017-08-14T16:48:13.994Z,53.90
2017-08-14T16:50:43.028Z,53.10
2017-08-14T16:53:11.283Z,53.10
2017-08-14T16:55:40.283Z,53.80
2017-08-14T16:58:09.070Z,54.20
2017-08-14T17:00:37.666Z,53.60
2017-08-14T17:03:06.204Z,54.00
2017-08-14T17:05:34.460Z,54.70
2017-08-14T17:08:04.089Z,55.30
2017-08-14T17:10:33.075Z,54.40
2017-08-14T17:13:02.497Z,54.20
2017-08-14T17:15:30.925Z,54.10
2017-08-14T17:17:59.247Z,55.10
2017-08-14T17:20:28.894Z,54.40
2017-08-14T17:22:57.490Z,54.40
2017-08-14T17:25:25.811Z,54.60
2017-08-14T17:27:54.823Z,55.10
2017-08-14T17:30:23.947Z,55.60
2017-08-14T17:32:52.557Z,55.60
2017-08-14T17:35:20.867Z,55.60
2017-08-14T17:37:49.157Z,56.40
2017-08-14T17:40:18.794Z,55.10
2017-08-14T17:42:47.058Z,55.10
2017-08-14T17:45:15.685Z,56.10
2017-08-14T17:47:45.988Z,56.10
2017-08-14T17:50:14.290Z,56.10
2017-08-14T17:52:42.577Z,56.90
2017-08-14T17:55:10.830Z,56.50
2017-08-14T17:57:40.018Z,57.00
2017-08-14T18:00:08.297Z,57.50
2017-08-14T18:02:36.582Z,57.20
2017-08-14T18:05:05.222Z,57.60
2017-08-14T18:07:34.251Z,58.00
2017-08-14T18:10:02.597Z,58.00
2017-08-14T18:12:31.626Z,58.50
2017-08-14T18:15:00.642Z,58.40
2017-08-14T18:17:29.406Z,58.60
2017-08-14T18:19:58.444Z,59.20
2017-08-14T18:22:26.811Z,59.10
2017-08-14T18:24:55.467Z,59.50
2017-08-14T18:27:23.737Z,59.80
2017-08-14T18:29:52.043Z,59.80
2017-08-14T18:32:20.292Z,60.40
2017-08-14T18:34:49.555Z,60.70
2017-08-14T18:37:19.051Z,61.20
2017-08-14T18:39:48.195Z,61.60
2017-08-14T18:42:17.661Z,63.80
2017-08-14T18:44:45.930Z,63.50
2017-08-14T18:47:14.196Z,64.70
2017-08-14T18:49:42.503Z,65.50
2017-08-14T18:52:11.520Z,66.90
2017-08-14T18:54:40.246Z,66.90
2017-08-14T18:57:09.063Z,67.50
2017-08-14T18:59:37.340Z,67.90
2017-08-14T19:02:05.572Z,67.90
2017-08-14T19:04:33.911Z,68.30
2017-08-14T19:07:03.013Z,69.50
2017-08-14T19:09:33.045Z,70.60
2017-08-14T19:12:00.340Z,70.00
2017-08-14T19:14:29.509Z,70.30
2017-08-14T19:16:59.415Z,71.70
2017-08-14T19:19:27.746Z,71.70
2017-08-14T19:21:56.391Z,71.50
2017-08-14T19:24:24.667Z,72.80
2017-08-14T19:26:53.667Z,73.50
2017-08-14T19:29:21.946Z,74.20
2017-08-14T19:31:50.479Z,74.60
2017-08-14T19:34:18.754Z,75.00
2017-08-14T19:36:48.146Z,75.40
2017-08-14T19:39:16.452Z,74.80
2017-08-14T19:41:44.751Z,73.70
2017-08-14T19:44:13.143Z,74.50
2017-08-14T19:46:42.143Z,75.60
2017-08-14T19:49:11.583Z,75.90
2017-08-14T19:51:39.938Z,76.60
2017-08-14T19:54:08.765Z,76.40
2017-08-14T19:56:37.607Z,76.40
2017-08-14T19:59:07.500Z,76.50
2017-08-14T20:01:35.939Z,77.10
2017-08-14T20:04:04.501Z,77.40
2017-08-14T20:06:33.213Z,77.80
2017-08-14T20:09:01.647Z,77.90
2017-08-14T20:11:30.348Z,78.20
2017-08-14T20:13:59.517Z,79.20
2017-08-14T20:16:27.850Z,79.20
2017-08-14T20:18:56.357Z,79.30
2017-08-14T20:21:25.457Z,79.40
2017-08-14T20:23:56.280Z,79.40
2017-08-14T20:26:25.741Z,79.60
2017-08-14T20:28:55.556Z,80.10
2017-08-14T20:31:24.321Z,80.40
2017-08-14T20:33:53.404Z,81.20
2017-08-14T20:36:22.443Z,81.40
2017-08-14T20:38:50.743Z,81.40
2017-08-14T20:41:19.628Z,81.60
2017-08-14T20:43:48.810Z,81.80
2017-08-14T20:46:17.157Z,81.80
2017-08-14T20:48:46.690Z,82.40
2017-08-14T20:51:17.097Z,81.80
2017-08-14T20:53:46.088Z,82.10
2017-08-14T20:56:17.349Z,82.00
2017-08-14T20:58:46.175Z,81.90
2017-08-14T21:01:15.455Z,81.50
2017-08-14T21:03:43.788Z,80.90
2017-08-14T21:06:12.873Z,80.70
2017-08-14T21:08:42.637Z,81.30
2017-08-14T21:11:10.914Z,81.40
2017-08-14T21:13:39.149Z,81.30
2017-08-14T21:16:08.189Z,81.70
2017-08-14T21:18:36.863Z,81.60
2017-08-14T21:21:05.854Z,81.90
2017-08-14T21:23:34.115Z,81.90
2017-08-14T21:26:03.392Z,80.30
2017-08-14T21:28:31.860Z,80.30
2017-08-14T21:31:00.883Z,80.00
2017-08-14T21:33:30.152Z,78.30
2017-08-14T21:35:58.400Z,78.10
2017-08-14T21:38:26.668Z,78.10
2017-08-14T21:40:54.933Z,77.90
2017-08-14T21:43:23.388Z,78.70
2017-08-14T21:45:52.668Z,78.90
2017-08-14T21:48:20.879Z,79.00
2017-08-14T21:50:49.146Z,79.20
2017-08-14T21:53:17.414Z,79.10
2017-08-14T21:55:45.656Z,79.30
2017-08-14T21:58:13.921Z,79.30
2017-08-14T22:00:42.179Z,79.20
2017-08-14T22:03:10.462Z,79.20
2017-08-14T22:05:38.706Z,79.60
2017-08-14T22:08:07.016Z,79.50
2017-08-14T22:10:35.267Z,79.70
2017-08-14T22:13:03.529Z,79.20
2017-08-14T22:15:32.603Z,79.30
2017-08-14T22:18:01.419Z,79.30
2017-08-14T22:20:29.674Z,79.50
2017-08-14T22:22:58.986Z,80.40
2017-08-14T22:25:28.025Z,79.70
2017-08-14T22:27:56.275Z,79.70
2017-08-14T22:30:26.840Z,79.70
2017-08-14T22:32:55.066Z,79.70
2017-08-14T22:35:24.074Z,79.70
2017-08-14T22:37:53.180Z,79.70
2017-08-14T22:40:22.611Z,79.00
2017-08-14T22:42:50.896Z,79.00
2017-08-14T22:45:20.288Z,78.70
2017-08-14T22:47:49.504Z,78.70
2017-08-14T22:50:17.872Z,78.70
2017-08-14T22:52:46.117Z,77.50
2017-08-14T22:55:15.139Z,76.70
2017-08-14T22:57:43.982Z,76.70
2017-08-14T23:00:13.282Z,76.80
2017-08-14T23:02:42.313Z,77.00
2017-08-14T23:05:10.767Z,77.00
2017-08-14T23:07:39.029Z,76.80
2017-08-14T23:10:07.927Z,77.00
2017-08-14T23:12:36.961Z,78.10
2017-08-14T23:15:05.987Z,77.00
2017-08-14T23:17:34.240Z,77.00
2017-08-14T23:20:02.475Z,77.60
2017-08-14T23:22:30.982Z,78.10
2017-08-14T23:24:59.263Z,78.50
2017-08-14T23:27:28.266Z,79.30
2017-08-14T23:29:56.600Z,79.30
2017-08-14T23:32:24.866Z,79.10
2017-08-14T23:34:53.109Z,79.60
2017-08-14T23:37:21.363Z,79.60
2017-08-14T23:39:49.637Z,80.20
2017-08-14T23:42:17.884Z,80.20
2017-08-14T23:44:46.121Z,80.80
2017-08-14T23:47:14.378Z,81.00
2017-08-14T23:49:42.601Z,80.20
2017-08-14T23:52:10.848Z,79.40
2017-08-14T23:54:39.096Z,78.90
2017-08-14T23:57:08.089Z,79.10
2017-08-14T23:59:36.396Z,79.10
